createdAt,value
2022-10-24T00:00:44.194Z,100411.55
2022-10-24T00:03:18.773Z,100411.02
2022-10-24T00:05:50.767Z,100412.70
2022-10-24T00:08:22.102Z,100413.38
2022-10-24T00:10:53.263Z,100415.92
2022-10-24T00:13:24.094Z,100417.45
2022-10-24T00:15:55.159Z,100415.71
2022-10-24T00:18:26.581Z,100421.18
2022-10-24T00:20:58.784Z,100424.59
2022-10-24T00:23:29.649Z,100421.33
2022-10-24T00:26:04.650Z,100422.86
2022-10-24T00:28:36.730Z,100421.13
2022-10-24T00:31:09.350Z,100424.52
2022-10-24T00:33:40.614Z,100430.31
2022-10-24T00:36:14.869Z,100429.10
2022-10-24T00:38:46.323Z,100429.77
2022-10-24T00:41:21.073Z,100429.56
2022-10-24T00:43:53.687Z,100427.31
2022-10-24T00:46:24.462Z,100420.27
2022-10-24T00:48:56.535Z,100418.34
2022-10-24T00:51:34.200Z,100420.58
2022-10-24T00:54:09.771Z,100417.86
2022-10-24T00:56:45.042Z,100411.86
2022-10-24T00:59:19.174Z,100401.23
2022-10-24T01:01:50.558Z,100395.39
2022-10-24T01:04:21.479Z,100393.02
2022-10-24T01:07:01.201Z,100391.29
2022-10-24T01:09:50.527Z,100389.73
2022-10-24T01:12:34.475Z,100391.98
2022-10-24T01:15:15.461Z,100389.91
2022-10-24T01:17:53.522Z,100387.52
2022-10-24T01:20:58.331Z,100384.92
2022-10-24T01:23:56.326Z,100378.39
2022-10-24T01:26:54.736Z,100375.64
2022-10-24T01:29:46.422Z,100372.35
2022-10-24T01:32:29.652Z,100365.29
2022-10-24T01:35:08.039Z,100359.77
2022-10-24T01:37:44.900Z,100358.89
2022-10-24T01:40:21.575Z,100355.93
2022-10-24T01:42:55.612Z,100360.52
2022-10-24T01:45:31.386Z,100360.52
2022-10-24T01:48:06.401Z,100363.41
2022-10-24T01:50:39.479Z,100361.33
2022-10-24T01:53:13.193Z,100361.98
2022-10-24T01:55:46.806Z,100354.92
2022-10-24T01:58:17.816Z,100348.55
2022-10-24T02:00:51.332Z,100347.15
2022-10-24T02:03:28.101Z,100343.05
2022-10-24T02:06:04.748Z,100331.40
2022-10-24T02:08:40.243Z,100323.34
2022-10-24T02:11:12.825Z,100318.70
2022-10-24T02:13:49.085Z,100307.58
2022-10-24T02:16:21.596Z,100301.44
2022-10-24T02:18:56.063Z,100295.95
2022-10-24T02:21:34.694Z,100297.90
2022-10-24T02:24:11.399Z,100299.63
2022-10-24T02:26:48.609Z,100300.49
2022-10-24T02:29:25.695Z,100300.34
2022-10-24T02:31:59.649Z,100302.55
2022-10-24T02:34:35.336Z,100305.66
2022-10-24T02:37:07.788Z,100308.58
2022-10-24T02:39:41.190Z,100305.34
2022-10-24T02:42:15.514Z,100306.55
2022-10-24T02:44:48.226Z,100312.05
2022-10-24T02:47:24.120Z,100315.52
2022-10-24T02:49:55.556Z,100316.27
2022-10-24T02:52:26.571Z,100314.98
2022-10-24T02:54:57.645Z,100311.80
2022-10-24T02:57:28.616Z,100307.23
2022-10-24T02:59:59.580Z,100305.21
2022-10-24T03:02:30.563Z,100304.39
2022-10-24T03:05:01.904Z,100299.48
2022-10-24T03:07:33.009Z,100294.58
2022-10-24T03:10:04.209Z,100293.77
2022-10-24T03:12:35.350Z,100292.64
2022-10-24T03:15:07.289Z,100290.29
2022-10-24T03:17:38.554Z,100289.70
2022-10-24T03:20:11.241Z,100291.98
2022-10-24T03:22:42.791Z,100291.52
2022-10-24T03:25:13.775Z,100288.16
2022-10-24T03:27:45.637Z,100283.24
2022-10-24T03:30:17.210Z,100276.93
2022-10-24T03:32:48.422Z,100278.36
2022-10-24T03:35:19.836Z,100279.59
2022-10-24T03:37:50.824Z,100276.71
2022-10-24T03:40:21.817Z,100278.97
2022-10-24T03:42:53.238Z,100274.54
2022-10-24T03:45:24.297Z,100271.50
2022-10-24T03:47:55.735Z,100269.64
2022-10-24T03:50:26.745Z,100265.55
2022-10-24T03:52:57.948Z,100262.30
2022-10-24T03:55:30.008Z,100260.73
2022-10-24T03:58:01.416Z,100261.22
2022-10-24T04:00:34.988Z,100258.27
2022-10-24T04:03:06.125Z,100258.07
2022-10-24T04:08:13.374Z,100261.92
2022-10-24T04:10:44.370Z,100260.02
2022-10-24T04:13:15.464Z,100255.21
2022-10-24T04:15:46.838Z,100251.25
2022-10-24T04:18:17.837Z,100251.61
2022-10-24T04:20:48.866Z,100246.31
2022-10-24T04:23:19.844Z,100241.65
2022-10-24T04:25:51.305Z,100237.67
2022-10-24T04:28:22.383Z,100237.48
2022-10-24T04:30:58.584Z,100230.62
2022-10-24T04:33:29.706Z,100224.64
2022-10-24T04:36:00.741Z,100217.64
2022-10-24T04:38:33.659Z,100215.41
2022-10-24T04:41:07.325Z,100206.69
2022-10-24T04:43:41.108Z,100199.67
2022-10-24T04:46:12.075Z,100193.00
2022-10-24T04:48:43.202Z,100191.30
2022-10-24T04:51:18.542Z,100189.57
2022-10-24T04:53:52.737Z,100185.45
2022-10-24T04:56:25.970Z,100183.22
2022-10-24T04:58:56.972Z,100182.36
2022-10-24T05:01:28.146Z,100176.36
2022-10-24T05:03:59.202Z,100172.27
2022-10-24T05:06:30.301Z,100172.27
2022-10-24T05:09:01.293Z,100173.25
2022-10-24T05:11:33.158Z,100171.16
2022-10-24T05:14:04.393Z,100167.73
2022-10-24T05:16:35.534Z,100167.71
2022-10-24T05:19:08.798Z,100166.85
2022-10-24T05:21:40.351Z,100164.95
2022-10-24T05:24:11.588Z,100157.04
2022-10-24T05:26:42.786Z,100155.47
2022-10-24T05:29:13.895Z,100153.52
2022-10-24T05:31:44.903Z,100143.75
2022-10-24T05:34:15.947Z,100147.83
2022-10-24T05:36:47.120Z,100148.30
2022-10-24T05:39:18.368Z,100157.91
2022-10-24T05:41:52.162Z,100170.42
2022-10-24T05:44:26.114Z,100177.55
2022-10-24T05:46:57.674Z,100181.11
2022-10-24T05:49:28.761Z,100177.75
2022-10-24T05:52:00.021Z,100171.35
2022-10-24T05:54:42.535Z,100167.16
2022-10-24T05:57:22.453Z,100164.66
2022-10-24T05:59:53.478Z,100162.20
2022-10-24T06:02:28.214Z,100161.13
2022-10-24T06:04:59.898Z,100164.64
2022-10-24T06:07:31.723Z,100173.14
2022-10-24T06:10:03.806Z,100182.52
2022-10-24T06:12:36.522Z,100183.70
2022-10-24T06:15:11.117Z,100184.31
2022-10-24T06:17:42.498Z,100181.19
2022-10-24T06:20:13.807Z,100184.91
2022-10-24T06:22:46.878Z,100185.23
2022-10-24T06:25:18.597Z,100181.77
2022-10-24T06:27:49.818Z,100176.40
2022-10-24T06:30:21.253Z,100175.86
2022-10-24T06:32:52.495Z,100171.20
2022-10-24T06:35:24.862Z,100167.79
2022-10-24T06:37:56.510Z,100158.86
2022-10-24T06:40:28.599Z,100152.98
2022-10-24T06:43:00.375Z,100149.82
2022-10-24T06:45:33.833Z,100151.47
2022-10-24T06:48:05.517Z,100157.02
2022-10-24T06:50:40.841Z,100172.47
2022-10-24T06:53:13.185Z,100187.92
2022-10-24T06:55:44.757Z,100193.33
2022-10-24T06:58:16.786Z,100194.23
2022-10-24T07:00:48.161Z,100202.54
2022-10-24T07:03:19.474Z,100202.64
2022-10-24T07:05:51.234Z,100217.34
2022-10-24T07:08:25.591Z,100218.66
2022-10-24T07:11:11.958Z,100211.64
2022-10-24T07:13:43.522Z,100218.52
2022-10-24T07:16:15.486Z,100230.04
2022-10-24T07:18:47.636Z,100239.02
2022-10-24T07:21:21.855Z,100239.84
2022-10-24T07:23:55.048Z,100247.35
2022-10-24T07:26:31.202Z,100244.54
2022-10-24T07:29:04.850Z,100239.52
2022-10-24T07:31:37.866Z,100236.90
2022-10-24T07:34:10.891Z,100242.00
2022-10-24T07:36:43.809Z,100228.40
2022-10-24T07:39:16.146Z,100210.03
2022-10-24T07:41:47.441Z,100202.21
2022-10-24T07:44:19.043Z,100199.02
2022-10-24T07:46:50.783Z,100190.27
2022-10-24T07:49:30.151Z,100189.56
2022-10-24T07:52:07.225Z,100199.40
2022-10-24T07:54:44.861Z,100194.58
2022-10-24T07:57:16.175Z,100199.16
2022-10-24T07:59:47.623Z,100204.91
2022-10-24T08:02:19.826Z,100195.24
2022-10-24T08:04:53.978Z,100184.85
2022-10-24T08:07:25.476Z,100190.71
2022-10-24T08:09:56.973Z,100188.27
2022-10-24T08:12:28.449Z,100177.48
2022-10-24T08:15:00.640Z,100176.13
2022-10-24T08:17:33.577Z,100175.61
2022-10-24T08:20:05.406Z,100174.60
2022-10-24T08:22:36.959Z,100173.80
2022-10-24T08:25:11.362Z,100179.31
2022-10-24T08:30:20.400Z,100171.90
2022-10-24T08:32:51.697Z,100165.85
2022-10-24T08:35:23.627Z,100161.56
2022-10-24T08:37:55.093Z,100165.02
2022-10-24T08:40:26.976Z,100166.85
2022-10-24T08:42:58.288Z,100163.95
2022-10-24T08:45:37.155Z,100171.16
2022-10-24T08:48:14.599Z,100184.07
2022-10-24T08:50:52.751Z,100187.23
2022-10-24T08:53:29.177Z,100185.50
2022-10-24T08:56:35.131Z,100180.30
2022-10-24T08:59:08.184Z,100175.95
2022-10-24T09:01:45.399Z,100173.43
2022-10-24T09:04:21.212Z,100178.06
2022-10-24T09:06:55.794Z,100177.59
2022-10-24T09:09:31.575Z,100179.02
2022-10-24T09:12:05.203Z,100176.13
2022-10-24T09:14:40.046Z,100179.82
2022-10-24T09:17:20.320Z,100178.23
2022-10-24T09:19:54.316Z,100173.35
2022-10-24T09:22:28.295Z,100168.80
2022-10-24T09:25:03.227Z,100171.81
2022-10-24T09:27:37.606Z,100162.05
2022-10-24T09:30:16.741Z,100160.27
2022-10-24T09:32:49.163Z,100161.02
2022-10-24T09:35:24.022Z,100157.67
2022-10-24T09:37:56.656Z,100168.51
2022-10-24T09:40:31.715Z,100166.21
2022-10-24T09:43:14.617Z,100164.69
2022-10-24T09:45:47.903Z,100161.96
2022-10-24T09:48:27.576Z,100158.19
2022-10-24T09:51:04.247Z,100150.18
2022-10-24T09:53:37.801Z,100157.02
2022-10-24T09:56:13.869Z,100159.61
2022-10-24T09:58:45.519Z,100158.30
2022-10-24T10:01:23.953Z,100162.02
2022-10-24T10:04:10.046Z,100159.89
2022-10-24T10:06:47.140Z,100157.92
2022-10-24T10:09:25.584Z,100153.35
2022-10-24T10:12:03.584Z,100149.78
2022-10-24T10:14:41.618Z,100145.02
2022-10-24T10:17:25.613Z,100153.94
2022-10-24T10:19:57.862Z,100150.77
2022-10-24T10:22:31.912Z,100145.54
2022-10-24T10:25:03.677Z,100146.08
2022-10-24T10:27:37.935Z,100141.94
2022-10-24T10:30:30.442Z,100141.23
2022-10-24T10:33:24.912Z,100148.14
2022-10-24T10:36:04.471Z,100147.38
2022-10-24T10:38:49.578Z,100146.81
2022-10-24T10:41:35.225Z,100146.61
2022-10-24T10:44:24.503Z,100138.98
2022-10-24T10:47:07.313Z,100137.02
2022-10-24T10:49:42.487Z,100135.30
2022-10-24T10:52:14.108Z,100138.06
2022-10-24T10:55:10.862Z,100143.85
2022-10-24T10:57:49.484Z,100149.23
2022-10-24T11:00:28.817Z,100151.03
2022-10-24T11:03:16.950Z,100151.55
2022-10-24T11:06:05.176Z,100146.00
2022-10-24T11:09:04.933Z,100147.38
2022-10-24T11:11:41.138Z,100148.48
2022-10-24T11:14:23.637Z,100154.60
2022-10-24T11:16:58.157Z,100150.99
2022-10-24T11:19:35.170Z,100150.29
2022-10-24T11:22:11.869Z,100145.69
2022-10-24T11:24:48.360Z,100146.23
2022-10-24T11:27:29.504Z,100145.59
2022-10-24T11:30:06.824Z,100141.90
2022-10-24T11:32:44.784Z,100142.36
2022-10-24T11:35:26.571Z,100142.75
2022-10-24T11:38:03.280Z,100141.39
2022-10-24T11:40:36.804Z,100137.38
2022-10-24T11:43:17.416Z,100132.86
2022-10-24T11:45:55.732Z,100128.81
2022-10-24T11:48:35.654Z,100131.34
2022-10-24T11:51:17.749Z,100131.66
2022-10-24T11:53:56.978Z,100132.08
2022-10-24T11:56:34.861Z,100127.00
2022-10-24T11:59:08.784Z,100124.50
2022-10-24T12:02:16.685Z,100123.80
2022-10-24T12:05:23.896Z,100126.31
2022-10-24T12:08:28.980Z,100121.36
2022-10-24T12:11:23.787Z,100115.85
2022-10-24T12:14:23.027Z,100119.21
2022-10-24T12:17:15.895Z,100116.28
2022-10-24T12:19:50.693Z,100113.83
2022-10-24T12:25:16.294Z,100092.67
2022-10-24T12:27:53.746Z,100095.08
2022-10-24T12:30:27.588Z,100090.19
2022-10-24T12:33:09.879Z,100086.69
2022-10-24T12:35:56.519Z,100087.02
2022-10-24T12:39:04.854Z,100084.85
2022-10-24T12:41:44.797Z,100082.67
2022-10-24T12:44:51.782Z,100082.19
2022-10-24T12:48:05.387Z,100081.41
2022-10-24T12:50:57.435Z,100078.67
2022-10-24T12:54:00.686Z,100071.81
2022-10-24T12:56:33.200Z,100074.07
2022-10-24T12:59:19.910Z,100073.55
2022-10-24T13:02:42.774Z,100068.95
2022-10-24T13:05:44.462Z,100060.35
2022-10-24T13:08:43.190Z,100059.44
2022-10-24T13:11:32.440Z,100058.36
2022-10-24T13:14:21.501Z,100061.36
2022-10-24T13:17:03.433Z,100057.02
2022-10-24T13:19:38.701Z,100066.48
2022-10-24T13:22:30.821Z,100066.05
2022-10-24T13:25:18.478Z,100067.52
2022-10-24T13:28:27.374Z,100066.56
2022-10-24T13:31:29.683Z,100068.20
2022-10-24T13:34:17.918Z,100070.13
2022-10-24T13:36:51.954Z,100070.00
2022-10-24T13:39:31.119Z,100065.80
2022-10-24T13:42:07.782Z,100066.84
2022-10-24T13:44:46.689Z,100062.09
2022-10-24T13:47:22.506Z,100064.63
2022-10-24T13:50:01.907Z,100063.19
2022-10-24T13:52:39.772Z,100064.72
2022-10-24T13:55:24.806Z,100062.59
2022-10-24T13:58:13.376Z,100062.83
2022-10-24T14:00:58.730Z,100061.48
2022-10-24T14:03:32.569Z,100061.29
2022-10-24T14:06:08.458Z,100057.75
2022-10-24T14:11:40.672Z,100058.33
2022-10-24T14:14:26.849Z,100053.64
2022-10-24T14:17:23.649Z,100053.27
2022-10-24T14:19:59.341Z,100051.27
2022-10-24T14:22:37.091Z,100055.15
2022-10-24T14:25:24.240Z,100053.26
2022-10-24T14:27:57.415Z,100051.20
2022-10-24T14:30:34.499Z,100054.65
2022-10-24T14:33:23.756Z,100059.27
2022-10-24T14:35:57.963Z,100064.34
2022-10-24T14:38:33.915Z,100070.41
2022-10-24T14:41:09.617Z,100070.65
2022-10-24T14:43:42.209Z,100070.20
2022-10-24T14:46:35.525Z,100068.48
2022-10-24T14:49:30.645Z,100064.46
2022-10-24T14:52:09.562Z,100073.55
2022-10-24T14:54:45.525Z,100070.77
2022-10-24T14:57:23.144Z,100072.09
2022-10-24T14:59:56.506Z,100069.48
2022-10-24T15:02:32.856Z,100067.77
2022-10-24T15:05:32.739Z,100071.86
2022-10-24T15:08:28.863Z,100072.35
2022-10-24T15:11:21.680Z,100076.54
2022-10-24T15:14:06.343Z,100079.23
2022-10-24T15:16:39.266Z,100076.44
2022-10-24T15:19:19.497Z,100079.14
2022-10-24T15:21:51.049Z,100075.19
2022-10-24T15:24:29.114Z,100075.65
2022-10-24T15:27:14.014Z,100076.88
2022-10-24T15:29:45.199Z,100080.55
2022-10-24T15:32:19.593Z,100077.05
2022-10-24T15:34:56.742Z,100075.95
2022-10-24T15:37:28.697Z,100073.30
2022-10-24T15:40:17.968Z,100073.84
2022-10-24T15:42:49.754Z,100073.80
2022-10-24T15:45:21.703Z,100079.95
2022-10-24T15:47:54.220Z,100078.23
2022-10-24T15:50:26.965Z,100080.16
2022-10-24T15:52:59.501Z,100084.29
2022-10-24T15:55:31.871Z,100086.01
2022-10-24T15:58:03.322Z,100085.09
2022-10-24T16:00:35.629Z,100084.33
2022-10-24T16:03:08.775Z,100081.64
2022-10-24T16:05:42.845Z,100086.23
2022-10-24T16:08:21.006Z,100087.20
2022-10-24T16:10:53.885Z,100083.54
2022-10-24T16:13:26.135Z,100084.62
2022-10-24T16:15:57.308Z,100080.16
2022-10-24T16:18:28.455Z,100073.30
2022-10-24T16:21:00.141Z,100076.58
2022-10-24T16:23:31.328Z,100070.25
2022-10-24T16:26:02.829Z,100076.94
2022-10-24T16:28:34.826Z,100077.02
2022-10-24T16:31:07.416Z,100077.50
2022-10-24T16:33:39.002Z,100076.25
2022-10-24T16:36:10.984Z,100085.10
2022-10-24T16:38:42.432Z,100085.84
2022-10-24T16:41:21.871Z,100088.18
2022-10-24T16:43:54.686Z,100080.48
2022-10-24T16:46:28.071Z,100082.77
2022-10-24T16:49:02.534Z,100081.08
2022-10-24T16:51:34.327Z,100082.79
2022-10-24T16:54:05.410Z,100081.30
2022-10-24T16:56:36.953Z,100086.42
2022-10-24T16:59:10.403Z,100083.95
2022-10-24T17:01:45.244Z,100085.91
2022-10-24T17:04:16.451Z,100089.14
2022-10-24T17:06:47.835Z,100085.09
2022-10-24T17:09:19.566Z,100085.52
2022-10-24T17:11:51.124Z,100088.70
2022-10-24T17:14:22.762Z,100089.86
2022-10-24T17:16:54.459Z,100090.83
2022-10-24T17:19:26.212Z,100095.77
2022-10-24T17:21:57.809Z,100099.64
2022-10-24T17:24:30.211Z,100095.75
2022-10-24T17:27:03.141Z,100094.43
2022-10-24T17:29:36.407Z,100095.34
2022-10-24T17:32:08.746Z,100091.08
2022-10-24T17:34:41.900Z,100087.55
2022-10-24T17:37:26.181Z,100089.70
2022-10-24T17:40:03.527Z,100085.92
2022-10-24T17:42:35.998Z,100081.16
2022-10-24T17:45:14.357Z,100084.08
2022-10-24T17:50:19.179Z,100076.36
2022-10-24T17:52:52.319Z,100079.09
2022-10-24T17:55:45.603Z,100075.60
2022-10-24T17:58:17.515Z,100077.52
2022-10-24T18:00:49.137Z,100072.40
2022-10-24T18:03:20.632Z,100071.02
2022-10-24T18:05:51.712Z,100076.89
2022-10-24T18:08:23.595Z,100077.75
2022-10-24T18:10:55.667Z,100081.27
2022-10-24T18:13:27.046Z,100089.91
2022-10-24T18:15:58.288Z,100089.58
2022-10-24T18:18:30.303Z,100091.41
2022-10-24T18:21:10.997Z,100091.95
2022-10-24T18:23:42.721Z,100084.96
2022-10-24T18:26:15.801Z,100082.20
2022-10-24T18:28:48.929Z,100078.63
2022-10-24T18:31:22.205Z,100080.31
2022-10-24T18:33:53.463Z,100083.27
2022-10-24T18:37:14.065Z,100083.44
2022-10-24T18:39:45.569Z,100083.10
2022-10-24T18:42:26.828Z,100084.44
2022-10-24T18:44:59.455Z,100078.27
2022-10-24T18:47:32.555Z,100077.86
2022-10-24T18:50:04.732Z,100067.30
2022-10-24T18:52:48.108Z,100065.38
2022-10-24T18:55:22.913Z,100058.84
2022-10-24T18:57:55.013Z,100061.59
2022-10-24T19:00:28.206Z,100058.48
2022-10-24T19:03:26.194Z,100056.85
2022-10-24T19:06:06.326Z,100056.89
2022-10-24T19:08:37.949Z,100061.27
2022-10-24T19:13:46.284Z,100051.43
2022-10-24T19:16:28.736Z,100052.52
2022-10-24T19:19:03.805Z,100051.90
2022-10-24T19:21:35.327Z,100047.47
2022-10-24T19:24:07.155Z,100046.45
2022-10-24T19:33:30.434Z,100036.82
2022-10-24T19:36:05.165Z,100034.02
2022-10-24T19:38:36.446Z,100034.23
2022-10-24T19:41:11.417Z,100031.09
2022-10-24T19:43:42.744Z,100031.26
2022-10-24T19:46:42.278Z,100033.50
2022-10-24T19:49:13.627Z,100039.54
2022-10-24T19:51:45.048Z,100036.95
2022-10-24T19:54:16.271Z,100030.35
2022-10-24T19:56:49.467Z,100030.45
2022-10-24T19:59:26.003Z,100034.52
2022-10-24T20:04:31.525Z,100040.04
2022-10-24T20:07:03.006Z,100037.88
2022-10-24T20:09:34.057Z,100036.16
2022-10-24T20:12:06.179Z,100036.46
2022-10-24T20:15:02.835Z,100039.01
2022-10-24T20:17:33.911Z,100035.86
2022-10-24T20:20:05.470Z,100038.88
2022-10-24T20:22:40.545Z,100037.27
2022-10-24T20:25:10.433Z,100045.29
2022-10-24T20:31:18.076Z,100041.17
2022-10-24T20:33:49.211Z,100040.80
2022-10-24T20:36:22.177Z,100042.13
2022-10-24T20:38:53.383Z,100040.84
2022-10-24T20:41:24.442Z,100047.02
2022-10-24T20:48:59.383Z,100047.44
2022-10-24T20:51:30.606Z,100043.49
2022-10-24T20:54:02.007Z,100047.88
2022-10-24T20:56:33.080Z,100049.84
2022-10-24T20:59:04.641Z,100047.92
2022-10-24T21:01:35.999Z,100041.31
2022-10-24T21:04:07.249Z,100048.06
2022-10-24T21:06:38.367Z,100047.34
2022-10-24T21:09:09.829Z,100047.66
2022-10-24T21:11:40.865Z,100043.98
2022-10-24T21:14:15.075Z,100045.80
2022-10-24T21:16:46.494Z,100045.02
2022-10-24T21:19:18.147Z,100049.45
2022-10-24T21:21:49.464Z,100052.34
2022-10-24T21:24:20.654Z,100053.34
2022-10-24T21:26:51.737Z,100054.30
2022-10-24T21:29:38.076Z,100055.45
2022-10-24T21:32:09.380Z,100056.60
2022-10-24T21:34:40.405Z,100059.48
2022-10-24T21:37:11.733Z,100058.89
2022-10-24T21:39:42.791Z,100059.72
2022-10-24T21:42:14.111Z,100060.85
2022-10-24T21:44:45.176Z,100064.55
2022-10-24T21:47:16.380Z,100064.37
2022-10-24T21:50:12.817Z,100063.48
2022-10-24T21:52:44.489Z,100069.30
2022-10-24T21:55:15.916Z,100076.34
2022-10-24T21:57:47.166Z,100078.73
2022-10-24T22:00:19.070Z,100079.33
2022-10-24T22:02:50.982Z,100080.45
2022-10-24T22:05:22.457Z,100085.06
2022-10-24T22:07:53.597Z,100084.32
2022-10-24T22:10:26.117Z,100086.83
2022-10-24T22:12:57.261Z,100082.12
2022-10-24T22:15:28.213Z,100083.78
2022-10-24T22:17:59.076Z,100081.31
2022-10-24T22:20:29.892Z,100081.98
2022-10-24T22:23:00.736Z,100086.11
2022-10-24T22:25:31.961Z,100087.33
2022-10-24T22:28:02.856Z,100091.45
2022-10-24T22:30:33.680Z,100094.73
2022-10-24T22:33:05.514Z,100107.68
2022-10-24T22:35:38.657Z,100107.70
2022-10-24T22:38:11.538Z,100110.85
2022-10-24T22:40:43.327Z,100112.76
2022-10-24T22:43:14.991Z,100111.92
2022-10-24T22:45:55.661Z,100109.02
2022-10-24T22:48:31.359Z,100111.77
2022-10-24T22:51:02.985Z,100112.52
2022-10-24T22:53:34.997Z,100115.34
2022-10-24T22:56:14.609Z,100115.77
2022-10-24T22:58:47.345Z,100114.13
2022-10-24T23:01:30.296Z,100116.77
2022-10-24T23:04:16.866Z,100117.19
2022-10-24T23:06:52.920Z,100115.90
2022-10-24T23:09:23.875Z,100118.89
2022-10-24T23:11:56.036Z,100117.60
2022-10-24T23:14:27.938Z,100117.13
2022-10-24T23:17:01.933Z,100108.88
2022-10-24T23:19:34.664Z,100111.63
2022-10-24T23:22:20.766Z,100115.92
2022-10-24T23:24:55.284Z,100115.70
2022-10-24T23:27:38.118Z,100117.77
2022-10-24T23:30:18.835Z,100122.98
2022-10-24T23:32:52.179Z,100122.70
2022-10-24T23:35:25.270Z,100128.89
2022-10-24T23:37:57.088Z,100129.24
2022-10-24T23:40:34.946Z,100132.55
2022-10-24T23:43:15.352Z,100130.84
2022-10-24T23:45:56.630Z,100132.42
2022-10-24T23:48:46.469Z,100130.21
2022-10-24T23:51:24.727Z,100129.93
2022-10-24T23:53:57.575Z,100130.64
2022-10-24T23:56:30.229Z,100133.77
2022-10-24T23:59:01.570Z,100131.09
